createdAt,value
2023-08-07T00:00:14.641Z,3.40
2023-08-07T00:02:40.986Z,5.03
2023-08-07T00:05:07.375Z,3.92
2023-08-07T00:07:33.703Z,4.60
2023-08-07T00:09:59.979Z,5.78
2023-08-07T00:12:26.318Z,5.05
2023-08-07T00:14:52.698Z,4.20
2023-08-07T00:17:18.998Z,4.63
2023-08-07T00:19:45.348Z,4.40
2023-08-07T00:22:11.673Z,5.30
2023-08-07T00:24:37.944Z,4.63
2023-08-07T00:27:04.276Z,5.32
2023-08-07T00:29:30.570Z,5.35
2023-08-07T00:31:56.791Z,4.20
2023-08-07T00:34:23.058Z,4.60
2023-08-07T00:36:49.319Z,4.03
2023-08-07T00:39:15.606Z,5.63
2023-08-07T00:41:41.877Z,4.47
2023-08-07T00:44:08.175Z,4.38
2023-08-07T00:46:34.488Z,3.83
2023-08-07T00:49:00.828Z,4.63
2023-08-07T00:51:27.125Z,4.45
2023-08-07T00:53:53.397Z,4.15
2023-08-07T00:56:19.780Z,3.58
2023-08-07T00:58:46.120Z,4.82
2023-08-07T01:01:12.406Z,3.75
2023-08-07T01:03:38.736Z,3.45
2023-08-07T01:06:05.026Z,4.68
2023-08-07T01:08:31.378Z,4.57
2023-08-07T01:10:57.673Z,5.10
2023-08-07T01:13:23.958Z,4.20
2023-08-07T01:15:50.232Z,3.72
2023-08-07T01:18:16.689Z,4.22
2023-08-07T01:20:43.060Z,4.40
2023-08-07T01:23:09.308Z,5.30
2023-08-07T01:25:35.537Z,4.13
2023-08-07T01:28:01.805Z,5.38
2023-08-07T01:30:28.103Z,4.20
2023-08-07T01:32:54.431Z,3.50
2023-08-07T01:35:20.781Z,3.08
2023-08-07T01:37:47.005Z,3.92
2023-08-07T01:40:13.251Z,4.15
2023-08-07T01:42:39.552Z,3.88
2023-08-07T01:45:05.834Z,5.32
2023-08-07T01:47:32.241Z,4.00
2023-08-07T01:49:58.557Z,4.05
2023-08-07T01:52:24.854Z,4.35
2023-08-07T01:54:51.151Z,4.15
2023-08-07T01:57:17.403Z,4.00
2023-08-07T01:59:43.676Z,2.92
2023-08-07T02:02:10.243Z,4.68
2023-08-07T02:04:36.576Z,3.95
2023-08-07T02:07:02.912Z,4.43
2023-08-07T02:09:29.224Z,3.60
2023-08-07T02:11:55.529Z,4.95
2023-08-07T02:14:21.850Z,4.03
2023-08-07T02:16:48.105Z,4.47
2023-08-07T02:19:14.435Z,4.53
2023-08-07T02:21:40.758Z,3.78
2023-08-07T02:24:07.057Z,4.22
2023-08-07T02:26:33.363Z,3.70
2023-08-07T02:28:59.729Z,4.30
2023-08-07T02:31:26.104Z,3.72
2023-08-07T02:33:52.431Z,4.22
2023-08-07T02:36:18.777Z,3.55
2023-08-07T02:38:45.020Z,3.60
2023-08-07T02:41:11.298Z,4.22
2023-08-07T02:43:37.569Z,4.28
2023-08-07T02:46:03.909Z,3.65
2023-08-07T02:48:30.216Z,5.40
2023-08-07T02:50:56.542Z,3.45
2023-08-07T02:53:22.829Z,3.20
2023-08-07T02:55:49.173Z,4.30
2023-08-07T02:58:15.479Z,2.88
2023-08-07T03:00:41.706Z,3.80
2023-08-07T03:03:08.034Z,3.72
2023-08-07T03:05:34.360Z,5.13
2023-08-07T03:08:00.739Z,3.33
2023-08-07T03:10:27.137Z,3.78
2023-08-07T03:12:53.462Z,3.50
2023-08-07T03:15:19.834Z,4.72
2023-08-07T03:17:46.188Z,3.38
2023-08-07T03:20:12.559Z,4.32
2023-08-07T03:22:38.902Z,4.13
2023-08-07T03:25:05.242Z,4.22
2023-08-07T03:27:31.604Z,4.75
2023-08-07T03:29:57.875Z,4.63
2023-08-07T03:32:24.218Z,4.63
2023-08-07T03:34:50.533Z,4.05
2023-08-07T03:37:16.827Z,3.88
2023-08-07T03:39:43.168Z,3.53
2023-08-07T03:42:09.729Z,4.68
2023-08-07T03:44:35.997Z,4.15
2023-08-07T03:47:02.289Z,3.70
2023-08-07T03:49:28.591Z,4.30
2023-08-07T03:51:54.872Z,3.65
2023-08-07T03:54:21.121Z,4.18
2023-08-07T03:56:47.368Z,3.75
2023-08-07T03:59:13.678Z,3.88
2023-08-07T04:01:39.951Z,3.30
2023-08-07T04:04:06.276Z,4.63
2023-08-07T04:06:32.699Z,3.60
2023-08-07T04:08:59.036Z,3.58
2023-08-07T04:11:25.316Z,4.35
2023-08-07T04:13:51.584Z,4.93
2023-08-07T04:16:17.893Z,4.13
2023-08-07T04:18:44.344Z,3.55
2023-08-07T04:21:10.650Z,2.70
2023-08-07T04:23:36.922Z,4.97
2023-08-07T04:26:03.238Z,3.58
2023-08-07T04:28:29.534Z,4.65
2023-08-07T04:30:55.821Z,3.70
2023-08-07T04:33:22.179Z,3.75
2023-08-07T04:35:48.430Z,3.05
2023-08-07T04:38:14.801Z,4.55
2023-08-07T04:40:41.108Z,4.47
2023-08-07T04:43:07.399Z,4.90
2023-08-07T04:45:34.572Z,6.13
2023-08-07T04:48:01.708Z,5.13
2023-08-07T04:50:28.051Z,5.13
2023-08-07T04:52:54.355Z,4.72
2023-08-07T04:55:20.639Z,5.43
2023-08-07T04:57:46.900Z,4.55
2023-08-07T05:00:13.126Z,6.05
2023-08-07T05:02:39.455Z,4.72
2023-08-07T05:05:05.800Z,4.25
2023-08-07T05:07:32.093Z,4.93
2023-08-07T05:09:58.377Z,4.30
2023-08-07T05:12:24.733Z,3.90
2023-08-07T05:14:51.038Z,4.85
2023-08-07T05:17:17.336Z,4.07
2023-08-07T05:19:44.871Z,3.80
2023-08-07T05:22:11.147Z,4.40
2023-08-07T05:24:37.405Z,4.30
2023-08-07T05:27:03.624Z,3.60
2023-08-07T05:29:29.996Z,4.07
2023-08-07T05:31:56.479Z,3.58
2023-08-07T05:34:23.294Z,3.30
2023-08-07T05:36:49.546Z,3.95
2023-08-07T05:39:15.791Z,3.80
2023-08-07T05:41:42.082Z,4.07
2023-08-07T05:44:08.413Z,3.45
2023-08-07T05:46:34.699Z,3.58
2023-08-07T05:49:01.001Z,3.10
2023-08-07T05:51:27.317Z,3.50
2023-08-07T05:53:53.622Z,3.35
2023-08-07T05:56:19.965Z,3.35
2023-08-07T05:58:46.214Z,3.28
2023-08-07T06:01:12.592Z,3.90
2023-08-07T06:03:39.003Z,3.42
2023-08-07T06:06:05.357Z,4.40
2023-08-07T06:08:31.689Z,4.05
2023-08-07T06:10:58.003Z,3.78
2023-08-07T06:13:35.368Z,3.92
2023-08-07T06:16:02.917Z,3.45
2023-08-07T06:18:29.280Z,4.10
2023-08-07T06:20:55.865Z,4.35
2023-08-07T06:23:22.317Z,3.60
2023-08-07T06:25:48.572Z,4.13
2023-08-07T06:28:14.937Z,4.78
2023-08-07T06:30:41.251Z,3.28
2023-08-07T06:33:07.578Z,3.88
2023-08-07T06:35:34.126Z,3.13
2023-08-07T06:38:00.461Z,3.50
2023-08-07T06:40:26.816Z,3.35
2023-08-07T06:42:53.122Z,3.10
2023-08-07T06:45:19.451Z,4.05
2023-08-07T06:47:45.993Z,3.00
2023-08-07T06:50:12.393Z,2.17
2023-08-07T06:52:38.745Z,3.15
2023-08-07T06:55:05.064Z,3.45
2023-08-07T06:57:31.399Z,3.55
2023-08-07T06:59:57.817Z,3.78
2023-08-07T07:02:24.112Z,3.33
2023-08-07T07:04:50.401Z,4.13
2023-08-07T07:07:16.676Z,3.20
2023-08-07T07:09:42.963Z,4.00
2023-08-07T07:12:09.198Z,4.40
2023-08-07T07:14:35.451Z,3.05
2023-08-07T07:17:01.689Z,3.97
2023-08-07T07:19:28.020Z,4.07
2023-08-07T07:21:54.574Z,4.63
2023-08-07T07:24:21.055Z,3.78
2023-08-07T07:26:47.344Z,5.03
2023-08-07T07:29:13.672Z,5.22
2023-08-07T07:31:39.977Z,3.65
2023-08-07T07:34:06.332Z,5.25
2023-08-07T07:36:32.621Z,4.35
2023-08-07T07:38:58.945Z,3.90
2023-08-07T07:41:25.427Z,4.47
2023-08-07T07:43:51.744Z,4.72
2023-08-07T07:46:18.128Z,3.97
2023-08-07T07:48:44.452Z,4.70
2023-08-07T07:51:10.753Z,3.92
2023-08-07T07:53:37.079Z,4.97
2023-08-07T07:56:03.414Z,4.03
2023-08-07T07:58:29.745Z,3.63
2023-08-07T08:00:56.017Z,3.88
2023-08-07T08:03:22.435Z,5.43
2023-08-07T08:05:48.743Z,4.20
2023-08-07T08:08:15.113Z,4.22
2023-08-07T08:10:41.353Z,3.60
2023-08-07T08:13:07.720Z,4.10
2023-08-07T08:15:34.149Z,4.72
2023-08-07T08:18:00.505Z,3.40
2023-08-07T08:20:26.881Z,4.43
2023-08-07T08:22:53.151Z,4.00
2023-08-07T08:25:19.449Z,4.35
2023-08-07T08:27:45.820Z,4.55
2023-08-07T08:30:12.179Z,4.55
2023-08-07T08:32:38.462Z,4.53
2023-08-07T08:35:04.802Z,4.18
2023-08-07T08:37:31.169Z,3.28
2023-08-07T08:39:57.433Z,4.40
2023-08-07T08:42:23.730Z,4.28
2023-08-07T08:44:50.055Z,4.28
2023-08-07T08:47:16.361Z,4.32
2023-08-07T08:49:42.664Z,4.63
2023-08-07T08:52:09.016Z,3.70
2023-08-07T08:54:35.301Z,3.25
2023-08-07T08:57:01.618Z,4.30
2023-08-07T08:59:27.949Z,3.78
2023-08-07T09:01:54.206Z,3.28
2023-08-07T09:04:20.455Z,3.55
2023-08-07T09:06:46.755Z,2.80
2023-08-07T09:09:13.094Z,3.00
2023-08-07T09:11:39.426Z,3.35
2023-08-07T09:14:05.743Z,2.95
2023-08-07T09:16:32.073Z,2.75
2023-08-07T09:18:58.405Z,3.08
2023-08-07T09:21:24.722Z,3.63
2023-08-07T09:23:50.960Z,2.88
2023-08-07T09:26:17.337Z,3.03
2023-08-07T09:28:43.729Z,2.90
2023-08-07T09:31:10.149Z,3.03
2023-08-07T09:33:36.537Z,2.17
2023-08-07T09:36:02.856Z,2.78
2023-08-07T09:38:29.195Z,3.20
2023-08-07T09:40:55.522Z,2.38
2023-08-07T09:43:21.915Z,2.95
2023-08-07T09:45:48.447Z,2.63
2023-08-07T09:48:15.026Z,2.22
2023-08-07T09:50:41.349Z,2.70
2023-08-07T09:53:07.727Z,2.17
2023-08-07T09:55:34.054Z,2.58
2023-08-07T09:58:00.500Z,3.28
2023-08-07T10:00:26.895Z,2.33
2023-08-07T10:02:53.376Z,2.30
2023-08-07T10:05:19.912Z,2.80
2023-08-07T10:07:46.242Z,2.13
2023-08-07T10:10:12.662Z,1.73
2023-08-07T10:12:39.003Z,1.98
2023-08-07T10:15:05.988Z,2.05
2023-08-07T10:17:33.081Z,1.83
2023-08-07T10:19:59.743Z,1.90
2023-08-07T10:22:26.507Z,2.35
2023-08-07T10:24:53.204Z,1.90
2023-08-07T10:27:19.508Z,2.13
2023-08-07T10:29:45.798Z,1.92
2023-08-07T10:32:15.755Z,1.85
2023-08-07T10:34:42.532Z,1.45
2023-08-07T10:37:09.161Z,1.58
2023-08-07T10:39:35.599Z,2.08
2023-08-07T10:42:01.922Z,1.65
2023-08-07T10:44:28.329Z,1.50
2023-08-07T10:46:55.268Z,1.08
2023-08-07T10:49:22.057Z,1.00
2023-08-07T10:51:48.470Z,1.50
2023-08-07T10:54:14.804Z,1.00
2023-08-07T10:56:41.171Z,1.10
2023-08-07T10:59:07.424Z,1.00
2023-08-07T11:01:34.380Z,1.10
2023-08-07T11:04:00.844Z,1.40
2023-08-07T11:06:28.133Z,1.50
2023-08-07T11:08:54.462Z,2.00
2023-08-07T11:11:20.841Z,2.20
2023-08-07T11:13:47.293Z,1.60
2023-08-07T11:16:13.646Z,2.55
2023-08-07T11:18:39.928Z,1.60
2023-08-07T11:21:06.271Z,2.55
2023-08-07T11:23:32.534Z,2.30
2023-08-07T11:25:58.886Z,1.80
2023-08-07T11:28:25.251Z,1.60
2023-08-07T11:30:51.558Z,1.20
2023-08-07T11:33:17.913Z,1.98
2023-08-07T11:35:44.216Z,1.67
2023-08-07T11:38:10.550Z,1.23
2023-08-07T11:40:36.905Z,1.15
2023-08-07T11:43:03.265Z,1.15
2023-08-07T11:45:30.080Z,1.17
2023-08-07T11:47:57.510Z,1.10
2023-08-07T11:50:25.406Z,1.25
2023-08-07T11:52:52.096Z,0.80
2023-08-07T11:55:18.628Z,1.15
2023-08-07T11:57:44.898Z,0.73
2023-08-07T12:00:11.148Z,0.85
2023-08-07T12:02:38.035Z,0.88
2023-08-07T12:05:04.728Z,0.60
2023-08-07T12:07:33.663Z,0.90
2023-08-07T12:10:01.042Z,1.15
2023-08-07T12:12:27.937Z,0.70
2023-08-07T12:14:54.895Z,0.90
2023-08-07T12:17:21.506Z,0.77
2023-08-07T12:19:48.567Z,0.60
2023-08-07T12:22:15.264Z,0.60
2023-08-07T12:24:42.012Z,0.60
2023-08-07T12:27:08.333Z,0.60
2023-08-07T12:29:35.198Z,0.40
2023-08-07T12:32:02.155Z,0.52
2023-08-07T12:36:59.764Z,0.50
2023-08-07T12:40:35.528Z,0.40
2023-08-07T12:44:46.146Z,0.45
2023-08-07T12:47:13.616Z,0.47
2023-08-07T12:49:40.410Z,0.50
2023-08-07T12:52:07.254Z,0.50
2023-08-07T12:54:33.726Z,0.38
2023-08-07T12:57:00.092Z,0.50
2023-08-07T12:59:26.398Z,0.30
2023-08-07T13:01:52.717Z,0.40
2023-08-07T13:04:19.056Z,0.30
2023-08-07T13:06:45.344Z,0.50
2023-08-07T13:09:11.958Z,0.40
2023-08-07T13:11:38.208Z,0.32
2023-08-07T13:14:04.491Z,0.43
2023-08-07T13:16:30.803Z,0.40
2023-08-07T13:18:57.105Z,0.50
2023-08-07T13:21:23.408Z,0.50
2023-08-07T13:23:49.755Z,0.50
2023-08-07T13:26:16.028Z,0.47
2023-08-07T13:28:42.310Z,0.32
2023-08-07T13:31:08.821Z,0.30
2023-08-07T13:33:35.221Z,0.20
2023-08-07T13:36:01.504Z,0.30
2023-08-07T13:38:27.791Z,0.30
2023-08-07T13:40:54.266Z,0.30
2023-08-07T13:43:20.592Z,0.20
2023-08-07T13:45:46.894Z,0.20
2023-08-07T13:48:13.254Z,0.20
2023-08-07T13:50:39.584Z,0.20
2023-08-07T13:53:14.545Z,0.20
2023-08-07T13:55:42.140Z,0.20
2023-08-07T13:58:09.584Z,0.30
2023-08-07T14:00:40.101Z,0.20
2023-08-07T14:03:06.530Z,0.40
2023-08-07T14:05:32.853Z,0.52
2023-08-07T14:07:59.187Z,0.50
2023-08-07T14:10:25.495Z,0.20
2023-08-07T14:12:52.101Z,0.30
2023-08-07T14:15:18.368Z,0.28
2023-08-07T14:17:44.787Z,0.28
2023-08-07T14:20:11.100Z,0.30
2023-08-07T14:22:37.395Z,0.40
2023-08-07T14:25:03.699Z,0.20
2023-08-07T14:27:30.057Z,0.20
2023-08-07T14:29:56.296Z,0.20
2023-08-07T14:32:22.594Z,0.20
2023-08-07T14:34:48.875Z,0.25
2023-08-07T14:37:15.292Z,0.10
2023-08-07T14:39:41.656Z,0.13
2023-08-07T14:42:09.380Z,0.20
2023-08-07T14:44:35.815Z,0.30
2023-08-07T14:47:02.314Z,0.50
2023-08-07T14:49:28.631Z,0.28
2023-08-07T14:51:54.943Z,0.30
2023-08-07T14:54:21.401Z,0.20
2023-08-07T14:56:47.838Z,0.22
2023-08-07T14:59:15.200Z,0.20
2023-08-07T15:01:46.993Z,0.10
2023-08-07T15:04:13.591Z,0.20
2023-08-07T15:06:40.118Z,0.20
2023-08-07T15:09:06.664Z,0.25
2023-08-07T15:11:33.048Z,0.20
2023-08-07T15:14:01.931Z,0.28
2023-08-07T15:16:28.699Z,0.20
2023-08-07T15:18:55.259Z,0.20
2023-08-07T15:21:21.977Z,0.28
2023-08-07T15:23:48.896Z,0.13
2023-08-07T15:26:15.634Z,0.40
2023-08-07T15:28:42.401Z,0.20
2023-08-07T15:31:08.951Z,0.20
2023-08-07T15:33:35.470Z,0.20
2023-08-07T15:36:02.046Z,0.20
2023-08-07T15:38:28.998Z,0.10
2023-08-07T15:40:55.655Z,0.17
2023-08-07T15:43:22.523Z,0.10
2023-08-07T15:45:50.823Z,0.20
2023-08-07T15:48:17.986Z,0.30
2023-08-07T15:50:44.416Z,0.30
2023-08-07T15:53:10.757Z,0.40
2023-08-07T15:55:37.250Z,0.20
2023-08-07T15:58:06.652Z,0.30
2023-08-07T16:00:33.296Z,0.30
2023-08-07T16:03:02.543Z,0.30
2023-08-07T16:05:29.277Z,0.28
2023-08-07T16:07:56.192Z,0.20
2023-08-07T16:10:22.881Z,0.10
2023-08-07T16:12:49.487Z,0.38
2023-08-07T16:15:18.629Z,0.50
2023-08-07T16:17:45.285Z,0.40
2023-08-07T16:20:11.717Z,0.30
2023-08-07T16:22:38.589Z,0.55
2023-08-07T16:25:05.510Z,0.50
2023-08-07T16:27:32.348Z,0.30
2023-08-07T16:29:59.312Z,0.43
2023-08-07T16:32:28.597Z,0.28
2023-08-07T16:34:55.452Z,0.20
2023-08-07T16:37:22.034Z,0.15
2023-08-07T16:39:48.571Z,0.40
2023-08-07T16:42:15.168Z,0.20
2023-08-07T16:44:42.010Z,0.20
2023-08-07T16:47:08.891Z,0.20
2023-08-07T16:49:38.224Z,0.15
2023-08-07T16:52:04.789Z,0.28
2023-08-07T16:54:31.816Z,0.30
2023-08-07T16:56:58.946Z,0.30
2023-08-07T16:59:25.771Z,0.30
2023-08-07T17:01:52.401Z,0.30
2023-08-07T17:04:19.039Z,0.55
2023-08-07T17:06:45.532Z,0.38
2023-08-07T17:09:12.791Z,0.40
2023-08-07T17:11:39.314Z,0.32
2023-08-07T17:14:06.275Z,0.20
2023-08-07T17:16:32.862Z,0.30
2023-08-07T17:18:59.716Z,0.30
2023-08-07T17:21:26.566Z,0.22
2023-08-07T17:23:53.160Z,0.28
2023-08-07T17:26:19.903Z,0.20
2023-08-07T17:28:46.307Z,0.30
2023-08-07T17:31:12.777Z,0.38
2023-08-07T17:33:39.408Z,0.85
2023-08-07T17:36:06.388Z,0.70
2023-08-07T17:38:32.963Z,1.52
2023-08-07T17:40:59.755Z,1.40
2023-08-07T17:43:26.586Z,1.45
2023-08-07T17:45:53.418Z,1.52
2023-08-07T17:48:20.506Z,1.63
2023-08-07T17:50:49.477Z,1.90
2023-08-07T17:53:17.280Z,2.47
2023-08-07T17:55:44.100Z,2.47
2023-08-07T17:58:10.908Z,1.90
2023-08-07T18:00:37.753Z,2.60
2023-08-07T18:03:04.677Z,1.50
2023-08-07T18:05:32.003Z,0.75
2023-08-07T18:07:58.603Z,0.75
2023-08-07T18:10:25.545Z,0.52
2023-08-07T18:13:01.464Z,0.77
2023-08-07T18:15:28.129Z,0.52
2023-08-07T18:17:55.131Z,4.15
2023-08-07T18:20:22.016Z,4.93
2023-08-07T18:22:49.000Z,2.13
2023-08-07T18:25:15.469Z,1.67
2023-08-07T18:27:42.339Z,2.40
2023-08-07T18:30:08.670Z,1.88
2023-08-07T18:32:35.232Z,2.40
2023-08-07T18:35:01.652Z,2.08
2023-08-07T18:37:28.288Z,1.23
2023-08-07T18:39:54.663Z,1.58
2023-08-07T18:42:21.210Z,1.50
2023-08-07T18:44:47.831Z,1.02
2023-08-07T18:47:14.949Z,0.80
2023-08-07T18:49:41.655Z,0.85
2023-08-07T18:52:12.593Z,0.90
2023-08-07T18:54:41.955Z,0.50
2023-08-07T18:57:08.357Z,0.50
2023-08-07T18:59:34.618Z,0.65
2023-08-07T19:02:01.344Z,0.55
2023-08-07T19:04:27.741Z,0.70
2023-08-07T19:06:54.697Z,1.08
2023-08-07T19:09:21.095Z,1.63
2023-08-07T19:11:47.558Z,1.67
2023-08-07T19:14:13.883Z,2.80
2023-08-07T19:16:40.653Z,2.15
2023-08-07T19:19:07.461Z,1.98
2023-08-07T19:21:33.958Z,1.55
2023-08-07T19:24:00.505Z,1.08
2023-08-07T19:26:27.465Z,1.10
2023-08-07T19:28:53.842Z,0.90
2023-08-07T19:31:21.928Z,0.80
2023-08-07T19:33:48.300Z,0.80
2023-08-07T19:36:19.007Z,0.77
2023-08-07T19:38:45.498Z,0.80
2023-08-07T19:41:12.127Z,0.93
2023-08-07T19:43:38.863Z,0.80
2023-08-07T19:46:05.661Z,0.50
2023-08-07T19:48:32.409Z,0.60
2023-08-07T19:50:58.815Z,0.70
2023-08-07T19:53:25.795Z,0.52
2023-08-07T19:55:52.859Z,0.60
2023-08-07T19:58:19.799Z,0.70
2023-08-07T20:00:52.715Z,1.08
2023-08-07T20:03:19.772Z,1.20
2023-08-07T20:05:46.358Z,1.10
2023-08-07T20:08:12.996Z,1.00
2023-08-07T20:10:39.549Z,0.80
2023-08-07T20:13:05.893Z,1.15
2023-08-07T20:15:32.941Z,1.00
2023-08-07T20:17:59.917Z,0.80
2023-08-07T20:20:32.453Z,0.70
2023-08-07T20:23:08.184Z,0.77
2023-08-07T20:25:34.679Z,0.63
2023-08-07T20:28:01.225Z,0.57
2023-08-07T20:30:27.739Z,0.68
2023-08-07T20:32:56.990Z,0.70
2023-08-07T20:35:24.309Z,0.90
2023-08-07T20:37:53.585Z,0.70
2023-08-07T20:40:19.931Z,0.63
2023-08-07T20:42:46.661Z,0.60
2023-08-07T20:45:13.289Z,0.70
2023-08-07T20:47:39.902Z,0.65
2023-08-07T20:50:06.569Z,0.93
2023-08-07T20:52:37.237Z,0.77
2023-08-07T20:55:03.839Z,0.75
2023-08-07T20:57:30.197Z,0.95
2023-08-07T20:59:56.759Z,0.93
2023-08-07T21:02:23.204Z,0.73
2023-08-07T21:04:49.859Z,0.68
2023-08-07T21:07:16.518Z,0.60
2023-08-07T21:09:42.853Z,0.93
2023-08-07T21:12:09.318Z,0.95
2023-08-07T21:14:36.121Z,1.17
2023-08-07T21:17:03.008Z,0.75
2023-08-07T21:19:29.734Z,0.70
2023-08-07T21:21:56.925Z,0.93
2023-08-07T21:24:23.682Z,0.90
2023-08-07T21:26:50.393Z,0.77
2023-08-07T21:29:16.998Z,0.95
2023-08-07T21:31:43.577Z,0.80
2023-08-07T21:34:10.197Z,0.90
2023-08-07T21:36:36.813Z,0.85
2023-08-07T21:41:43.605Z,0.75
2023-08-07T21:44:10.288Z,0.88
2023-08-07T21:46:36.808Z,0.65
2023-08-07T21:49:03.525Z,0.80
2023-08-07T21:51:30.204Z,0.90
2023-08-07T21:53:56.946Z,1.35
2023-08-07T21:56:23.340Z,1.00
2023-08-07T21:58:50.007Z,0.88
2023-08-07T22:01:25.061Z,0.80
2023-08-07T22:03:51.579Z,0.60
2023-08-07T22:06:18.281Z,0.80
2023-08-07T22:08:46.984Z,1.00
2023-08-07T22:11:13.530Z,0.85
2023-08-07T22:13:39.980Z,0.98
2023-08-07T22:16:06.349Z,1.27
2023-08-07T22:18:32.760Z,1.25
2023-08-07T22:20:59.046Z,0.90
2023-08-07T22:23:25.355Z,1.00
2023-08-07T22:25:52.811Z,1.48
2023-08-07T22:28:20.195Z,1.10
2023-08-07T22:30:46.492Z,0.93
2023-08-07T22:33:12.854Z,0.70
2023-08-07T22:35:39.307Z,0.70
2023-08-07T22:38:05.617Z,0.75
2023-08-07T22:40:31.898Z,1.05
2023-08-07T22:42:58.224Z,0.90
2023-08-07T22:45:24.528Z,0.60
2023-08-07T22:47:50.974Z,0.75
2023-08-07T22:50:17.290Z,0.70
2023-08-07T22:52:43.681Z,0.82
2023-08-07T22:55:10.022Z,0.70
2023-08-07T22:57:36.389Z,0.75
2023-08-07T23:00:02.774Z,0.70
2023-08-07T23:02:29.275Z,0.77
2023-08-07T23:04:55.678Z,0.80
2023-08-07T23:07:21.977Z,1.05
2023-08-07T23:09:48.186Z,0.60
2023-08-07T23:12:15.322Z,0.60
2023-08-07T23:14:42.246Z,0.57
2023-08-07T23:17:08.535Z,0.70
2023-08-07T23:19:34.858Z,0.70
2023-08-07T23:22:01.368Z,0.63
2023-08-07T23:24:27.834Z,0.50
2023-08-07T23:26:54.197Z,0.60
2023-08-07T23:29:20.508Z,0.60
2023-08-07T23:31:46.890Z,0.75
2023-08-07T23:34:13.361Z,0.70
2023-08-07T23:36:39.647Z,0.60
2023-08-07T23:39:05.950Z,0.55
2023-08-07T23:41:32.185Z,0.63
2023-08-07T23:43:58.495Z,0.80
2023-08-07T23:46:24.777Z,0.55
2023-08-07T23:48:51.150Z,0.70
2023-08-07T23:51:17.414Z,0.70
2023-08-07T23:53:43.741Z,0.57
2023-08-07T23:56:10.048Z,0.70
2023-08-07T23:58:36.303Z,0.98
